Time;durP1;ratioP1;P1;durP2;ratioP2;P2;SDS_P1;SDS_P2;PMS_P1;PMS_P2;Temp;Humidity;BMP_temperature;BMP_pressure;BME280_temperature;BME280_humidity;BME280_pressure;Samples;Min_cycle;Max_cycle;Signal;HPM_P1;HPM_P2
2022/01/26 00:00:00;;;;;;;39.20;17.07;;;4.40;99.90;;;;;;5060665;28;20218;-46
2022/01/26 00:07:57;;;;;;;42.40;17.20;;;4.40;99.90;;;;;;5033685;28;20928;-44
2022/01/26 00:10:24;;;;;;;42.10;17.40;;;4.40;99.90;;;;;;5047997;28;20648;-44
2022/01/26 00:12:52;;;;;;;44.13;17.73;;;4.40;99.90;;;;;;5040741;28;20415;-44
2022/01/26 00:15:19;;;;;;;46.70;18.53;;;4.40;99.90;;;;;;5043324;28;20834;-43
2022/01/26 00:17:46;;;;;;;41.70;17.17;;;4.40;99.90;;;;;;5039586;28;20198;-44
2022/01/26 00:20:21;;;;;;;35.27;16.07;;;4.40;99.90;;;;;;5043765;28;20867;-46
2022/01/26 00:23:07;;;;;;;44.10;17.83;;;4.40;99.90;;;;;;5031030;28;20206;-47
2022/01/26 00:25:42;;;;;;;39.03;15.77;;;4.30;99.90;;;;;;5046818;28;20273;-43
2022/01/26 00:39:06;;;;;;;35.00;14.37;;;4.30;99.90;;;;;;5048378;28;20696;-43
2022/01/26 00:41:35;;;;;;;31.83;14.13;;;4.30;99.90;;;;;;5040575;28;20199;-43
2022/01/26 00:44:06;;;;;;;39.37;14.37;;;4.30;99.90;;;;;;5043422;28;20206;-43
2022/01/26 00:46:34;;;;;;;27.87;14.20;;;4.30;99.90;;;;;;5039545;28;20219;-45
2022/01/26 00:49:01;;;;;;;36.03;13.13;;;4.30;99.90;;;;;;5043465;28;20203;-42
2022/01/26 00:51:27;;;;;;;35.13;13.87;;;4.30;99.90;;;;;;5034932;28;20195;-43
2022/01/26 00:54:01;;;;;;;28.73;14.33;;;4.30;99.90;;;;;;5043498;28;20267;-44
2022/01/26 00:56:29;;;;;;;31.20;13.73;;;4.30;99.90;;;;;;5048233;28;20281;-47
2022/01/26 00:58:56;;;;;;;31.30;12.90;;;4.30;99.90;;;;;;5041817;28;20578;-42
2022/01/26 01:01:24;;;;;;;32.83;14.23;;;4.20;99.90;;;;;;5048406;28;20560;-44
2022/01/26 01:03:51;;;;;;;33.17;13.17;;;4.30;99.90;;;;;;5048703;28;20195;-41
2022/01/26 01:06:22;;;;;;;25.77;12.53;;;4.30;99.90;;;;;;5042450;28;20222;-43
2022/01/26 01:08:50;;;;;;;32.83;13.27;;;4.30;99.90;;;;;;5042729;28;20195;-46
2022/01/26 01:11:18;;;;;;;27.90;13.07;;;4.20;99.90;;;;;;5047558;28;20257;-42
2022/01/26 01:13:45;;;;;;;27.43;13.03;;;4.20;99.90;;;;;;5039140;28;20416;-43
2022/01/26 01:16:18;;;;;;;33.20;12.67;;;4.20;99.90;;;;;;5043004;28;20562;-42
2022/01/26 01:18:55;;;;;;;30.20;12.73;;;4.20;99.90;;;;;;5038820;28;20192;-43
2022/01/26 01:22:05;;;;;;;29.27;13.53;;;4.20;99.90;;;;;;5054895;28;20198;-43
2022/01/26 01:25:00;;;;;;;30.07;13.73;;;4.20;99.90;;;;;;5038514;28;20216;-42
2022/01/26 01:27:58;;;;;;;31.47;13.37;;;4.20;99.90;;;;;;5050476;28;20202;-43
2022/01/26 01:30:31;;;;;;;28.30;12.13;;;4.20;99.90;;;;;;5055585;28;20199;-43
2022/01/26 01:33:07;;;;;;;25.50;11.73;;;4.20;99.90;;;;;;5056704;28;20210;-46
2022/01/26 01:35:38;;;;;;;25.60;12.43;;;4.20;99.90;;;;;;5043112;28;20230;-42
2022/01/26 01:38:11;;;;;;;28.40;11.40;;;4.20;99.90;;;;;;5035082;28;20227;-42
2022/01/26 01:40:40;;;;;;;28.47;12.83;;;4.20;99.90;;;;;;5047514;28;20245;-43
2022/01/26 01:43:08;;;;;;;28.47;11.60;;;4.20;99.90;;;;;;5049321;28;20200;-47
2022/01/26 01:45:38;;;;;;;29.57;12.70;;;4.20;99.90;;;;;;5043047;28;20227;-43
2022/01/26 01:48:05;;;;;;;29.40;12.73;;;4.10;99.90;;;;;;5046325;28;20584;-41
2022/01/26 01:50:37;;;;;;;36.70;13.77;;;4.20;99.90;;;;;;5043288;28;20196;-42
2022/01/26 01:53:05;;;;;;;25.27;11.90;;;4.10;99.90;;;;;;5046486;28;20653;-44
2022/01/26 01:55:32;;;;;;;35.40;13.90;;;4.10;99.90;;;;;;5039960;28;20227;-42
2022/01/26 01:58:00;;;;;;;30.23;11.90;;;4.10;99.90;;;;;;5047114;28;20249;-42
2022/01/26 02:00:28;;;;;;;27.37;12.67;;;4.10;99.90;;;;;;5044019;28;20680;-41
2022/01/26 02:02:55;;;;;;;33.17;13.00;;;4.10;99.90;;;;;;5054467;28;20206;-47
2022/01/26 02:05:22;;;;;;;33.07;12.63;;;4.10;99.90;;;;;;5050122;28;20223;-42
2022/01/26 02:07:48;;;;;;;33.40;12.73;;;4.10;99.90;;;;;;5042584;28;20297;-43
2022/01/26 02:10:17;;;;;;;32.67;14.07;;;4.10;99.90;;;;;;5036505;28;20218;-41
2022/01/26 02:12:48;;;;;;;33.80;14.00;;;4.10;99.90;;;;;;5052792;28;20257;-47
2022/01/26 02:15:20;;;;;;;36.93;14.87;;;4.10;99.90;;;;;;5045967;28;20223;-44
2022/01/26 02:18:09;;;;;;;30.67;13.07;;;4.10;99.90;;;;;;5042340;28;20485;-48
2022/01/26 02:20:55;;;;;;;29.27;13.77;;;4.10;99.90;;;;;;5056661;28;20718;-42
2022/01/26 02:51:15;;;;;;;27.93;13.07;;;4.10;99.90;;;;;;5043767;28;20922;-43
2022/01/26 02:53:55;;;;;;;27.87;11.83;;;4.10;99.90;;;;;;5041026;28;20337;-46
2022/01/26 02:56:27;;;;;;;33.97;16.00;;;4.10;99.90;;;;;;5040136;28;20215;-44
2022/01/26 03:01:55;;;;;;;33.43;14.43;;;4.10;99.90;;;;;;5091845;27;20895;-43
2022/01/26 03:04:30;;;;;;;33.73;14.90;;;4.10;99.90;;;;;;5084374;28;20240;-42
2022/01/26 03:07:03;;;;;;;35.97;16.30;;;4.10;99.90;;;;;;5079368;28;20364;-43
2022/01/26 03:09:35;;;;;;;36.70;15.43;;;4.10;99.90;;;;;;5091463;28;20231;-43
2022/01/26 03:12:04;;;;;;;36.27;14.70;;;4.10;99.90;;;;;;5100231;28;20195;-47
2022/01/26 03:14:40;;;;;;;34.77;15.37;;;4.10;99.90;;;;;;5074400;28;20210;-42
2022/01/26 03:17:16;;;;;;;33.63;14.67;;;4.10;99.90;;;;;;5088535;28;20279;-45
2022/01/26 03:19:47;;;;;;;40.80;16.87;;;4.10;99.90;;;;;;5096360;28;20288;-49
2022/01/26 03:28:11;;;;;;;41.57;17.67;;;4.10;99.90;;;;;;5096383;28;20202;-42
2022/01/26 03:31:05;;;;;;;34.13;15.63;;;4.10;99.90;;;;;;5089071;28;20190;-42
2022/01/26 03:33:55;;;;;;;40.77;17.23;;;4.10;99.90;;;;;;5082631;28;20194;-43
2022/01/26 03:36:26;;;;;;;37.33;16.40;;;4.10;99.90;;;;;;5097730;28;20311;-43
2022/01/26 03:39:00;;;;;;;44.63;18.40;;;4.10;99.90;;;;;;5097453;28;20440;-41
2022/01/26 03:41:35;;;;;;;47.90;17.83;;;4.10;99.90;;;;;;5097644;28;20229;-41
2022/01/26 03:44:03;;;;;;;45.67;17.30;;;4.10;99.90;;;;;;5085678;28;20192;-42
2022/01/26 03:46:31;;;;;;;49.37;18.90;;;4.10;99.90;;;;;;5088315;28;20275;-42
2022/01/26 03:48:59;;;;;;;46.00;18.03;;;4.10;99.90;;;;;;5083431;28;20315;-42
2022/01/26 03:51:26;;;;;;;45.40;17.57;;;4.10;99.90;;;;;;5078319;28;20201;-41
2022/01/26 03:53:53;;;;;;;41.27;17.67;;;4.10;99.90;;;;;;5077745;28;20198;-42
2022/01/26 03:56:20;;;;;;;47.57;18.97;;;4.00;99.90;;;;;;5078973;28;20226;-42
2022/01/26 03:58:47;;;;;;;49.47;18.33;;;4.10;99.90;;;;;;5065634;28;20433;-45
2022/01/26 04:01:13;;;;;;;39.20;16.40;;;4.00;99.90;;;;;;5091032;28;20213;-42
2022/01/26 04:03:40;;;;;;;42.53;17.63;;;4.10;99.90;;;;;;5079932;28;20197;-46
2022/01/26 04:06:08;;;;;;;46.23;18.07;;;4.00;99.90;;;;;;5089700;28;20587;-44
2022/01/26 04:08:37;;;;;;;42.40;18.87;;;4.00;99.90;;;;;;5075881;28;20198;-43
2022/01/26 04:11:19;;;;;;;45.47;19.13;;;4.00;99.90;;;;;;5077953;28;20711;-45
2022/01/26 04:13:45;;;;;;;47.07;18.27;;;4.10;99.90;;;;;;5051381;28;20294;-46
2022/01/26 04:16:12;;;;;;;43.93;18.67;;;4.10;99.90;;;;;;5071034;28;20210;-44
2022/01/26 04:18:41;;;;;;;32.07;15.03;;;4.00;99.90;;;;;;5062189;28;20607;-43
2022/01/26 04:21:17;;;;;;;41.93;17.37;;;4.00;99.90;;;;;;5065621;28;20223;-41
2022/01/26 04:23:50;;;;;;;39.00;17.70;;;4.00;99.90;;;;;;5062218;28;20256;-42
2022/01/26 04:26:20;;;;;;;40.60;16.93;;;4.00;99.90;;;;;;5065492;28;20233;-43
2022/01/26 04:28:48;;;;;;;39.33;16.07;;;4.00;99.90;;;;;;5062565;28;20205;-42
2022/01/26 04:31:16;;;;;;;39.00;16.80;;;4.00;99.90;;;;;;5067412;28;20221;-42
2022/01/26 04:33:43;;;;;;;45.90;17.50;;;4.00;99.90;;;;;;5071973;28;20194;-44
2022/01/26 04:36:15;;;;;;;41.77;17.10;;;4.00;99.90;;;;;;5066628;28;20219;-43
2022/01/26 04:38:47;;;;;;;47.30;18.17;;;4.00;99.90;;;;;;5061606;28;20187;-46
2022/01/26 04:41:25;;;;;;;36.70;13.90;;;4.00;99.90;;;;;;5078708;28;20218;-41
2022/01/26 04:43:57;;;;;;;38.90;16.80;;;4.00;99.90;;;;;;5063103;28;20239;-43
2022/01/26 04:46:26;;;;;;;38.23;16.93;;;4.00;99.90;;;;;;5064622;28;20248;-42
2022/01/26 04:48:53;;;;;;;42.50;16.23;;;4.00;99.90;;;;;;5067494;28;20194;-42
2022/01/26 04:51:21;;;;;;;38.23;15.50;;;4.00;99.90;;;;;;5064964;28;20199;-44
2022/01/26 04:53:47;;;;;;;38.40;16.70;;;4.00;99.90;;;;;;5062141;28;20191;-42
2022/01/26 04:56:15;;;;;;;39.60;15.63;;;4.00;99.90;;;;;;5064897;28;20222;-47
2022/01/26 04:58:42;;;;;;;40.60;16.63;;;3.90;99.90;;;;;;5061760;28;20198;-44
2022/01/26 05:01:09;;;;;;;37.90;15.00;;;3.90;99.90;;;;;;5056363;28;20563;-44
2022/01/26 05:03:36;;;;;;;39.63;16.13;;;3.90;99.90;;;;;;5068263;28;20204;-43
2022/01/26 05:06:03;;;;;;;32.43;14.77;;;3.90;99.90;;;;;;5068059;28;20218;-45
2022/01/26 05:08:31;;;;;;;33.70;13.80;;;3.90;99.90;;;;;;5067576;28;20201;-43
2022/01/26 05:10:59;;;;;;;36.07;15.37;;;3.90;99.90;;;;;;5065973;28;20209;-44
2022/01/26 05:13:26;;;;;;;33.90;15.93;;;3.90;99.90;;;;;;5062908;28;20713;-42
2022/01/26 05:15:52;;;;;;;42.40;16.43;;;3.90;99.90;;;;;;5052179;28;20679;-44
2022/01/26 05:18:19;;;;;;;36.23;15.13;;;3.90;99.90;;;;;;5073571;28;20651;-42
2022/01/26 05:20:46;;;;;;;33.87;14.40;;;3.90;99.90;;;;;;5067587;28;20400;-44
2022/01/26 05:23:13;;;;;;;43.93;15.67;;;3.90;99.90;;;;;;5073287;28;20218;-46
2022/01/26 05:25:41;;;;;;;34.93;14.60;;;3.90;99.90;;;;;;5060587;28;21007;-43
2022/01/26 05:28:08;;;;;;;37.63;15.50;;;3.90;99.90;;;;;;5064959;28;20203;-45
2022/01/26 05:30:35;;;;;;;34.63;14.60;;;3.90;99.90;;;;;;5063480;28;20210;-44
2022/01/26 05:33:02;;;;;;;39.00;14.30;;;3.90;99.90;;;;;;5054089;28;20198;-44
2022/01/26 05:35:29;;;;;;;33.93;13.67;;;3.90;99.90;;;;;;5070130;28;20218;-46
2022/01/26 05:37:55;;;;;;;35.43;15.17;;;3.90;99.90;;;;;;5068373;28;20675;-44
2022/01/26 05:40:22;;;;;;;36.83;14.20;;;3.90;99.90;;;;;;5073582;28;20549;-46
2022/01/26 05:42:50;;;;;;;31.50;14.63;;;3.90;99.90;;;;;;5065986;28;20204;-43
2022/01/26 05:45:24;;;;;;;29.73;13.07;;;3.90;99.90;;;;;;5071841;28;20597;-45
2022/01/26 05:47:51;;;;;;;28.53;12.50;;;3.80;99.90;;;;;;5057258;28;20218;-47
2022/01/26 05:50:19;;;;;;;33.17;14.07;;;3.90;99.90;;;;;;5066693;28;20197;-45
2022/01/26 05:52:46;;;;;;;34.23;14.63;;;3.80;99.90;;;;;;5069522;28;20217;-44
2022/01/26 05:55:13;;;;;;;31.77;13.47;;;3.90;99.90;;;;;;5072786;28;20214;-46
2022/01/26 05:57:39;;;;;;;34.80;14.77;;;3.90;99.90;;;;;;5077986;28;20205;-45
2022/01/26 06:00:09;;;;;;;31.77;14.33;;;3.80;99.90;;;;;;5061495;28;20210;-45
2022/01/26 06:02:41;;;;;;;30.50;13.57;;;3.80;99.90;;;;;;5059369;28;20656;-43
2022/01/26 06:05:09;;;;;;;33.80;15.00;;;3.80;99.90;;;;;;5064468;28;20276;-46
2022/01/26 06:07:36;;;;;;;36.70;13.60;;;3.80;99.90;;;;;;5072704;28;20213;-45
2022/01/26 06:10:03;;;;;;;34.30;13.80;;;3.80;99.90;;;;;;5067481;28;20197;-48
2022/01/26 06:12:33;;;;;;;32.57;12.93;;;3.80;99.90;;;;;;5075289;28;20190;-42
2022/01/26 06:15:00;;;;;;;35.80;14.53;;;3.80;99.90;;;;;;5067197;28;20745;-43
2022/01/26 06:17:28;;;;;;;30.17;14.47;;;3.80;99.90;;;;;;5062773;28;20209;-43
2022/01/26 06:19:55;;;;;;;34.43;14.73;;;3.80;99.90;;;;;;5072803;28;20187;-43
2022/01/26 06:22:22;;;;;;;43.03;16.87;;;3.80;99.90;;;;;;5065289;28;20240;-44
2022/01/26 06:24:49;;;;;;;42.77;15.13;;;3.80;99.90;;;;;;5070566;28;20206;-44
2022/01/26 06:27:16;;;;;;;36.83;16.40;;;3.80;99.90;;;;;;5070294;28;20190;-43
2022/01/26 06:29:42;;;;;;;33.10;14.07;;;3.80;99.90;;;;;;5060309;28;20214;-43
2022/01/26 06:32:11;;;;;;;33.93;14.83;;;3.80;99.90;;;;;;5075457;28;20294;-45
2022/01/26 06:34:40;;;;;;;46.60;14.80;;;3.70;99.90;;;;;;5053393;28;20359;-49
2022/01/26 06:37:07;;;;;;;32.60;13.23;;;3.80;99.90;;;;;;5059571;28;20253;-41
2022/01/26 06:39:34;;;;;;;35.00;14.33;;;3.70;99.90;;;;;;5074276;28;20258;-42
2022/01/26 06:42:03;;;;;;;38.67;15.53;;;3.70;99.90;;;;;;5059654;28;20527;-43
2022/01/26 06:44:33;;;;;;;38.57;14.87;;;3.70;99.90;;;;;;5056451;28;20567;-44
2022/01/26 06:47:18;;;;;;;36.83;15.20;;;3.70;99.90;;;;;;5063943;28;20305;-46
2022/01/26 06:49:46;;;;;;;39.83;15.20;;;3.80;99.90;;;;;;5055244;28;20202;-45
2022/01/26 06:52:13;;;;;;;31.50;14.17;;;3.70;99.90;;;;;;5062980;28;20205;-44
2022/01/26 06:54:40;;;;;;;32.23;14.70;;;3.80;99.90;;;;;;5060924;28;20734;-45
2022/01/26 06:57:07;;;;;;;32.73;15.07;;;3.80;99.90;;;;;;5062556;28;20561;-45
2022/01/26 06:59:34;;;;;;;34.80;15.40;;;3.80;99.90;;;;;;5058927;28;20207;-43
2022/01/26 07:02:00;;;;;;;31.40;14.33;;;3.80;99.90;;;;;;5065624;28;20695;-41
2022/01/26 07:04:28;;;;;;;34.83;14.13;;;3.80;99.90;;;;;;5052021;28;20285;-41
2022/01/26 07:06:56;;;;;;;38.27;14.87;;;3.70;99.90;;;;;;5075828;28;20300;-42
2022/01/26 07:09:23;;;;;;;32.77;13.67;;;3.70;99.90;;;;;;5060735;28;20554;-42
2022/01/26 07:11:50;;;;;;;24.27;10.80;;;3.70;99.90;;;;;;5068850;28;20194;-42
2022/01/26 07:19:44;;;;;;;39.23;14.57;;;3.70;99.90;;;;;;5068124;28;20217;-45
2022/01/26 07:20:07;;;;;;;33.40;15.20;;;3.70;99.90;;;;;;5071977;28;20216;-42
2022/01/26 07:22:36;;;;;;;36.07;14.33;;;3.70;99.90;;;;;;5051528;28;20303;-42
2022/01/26 07:25:02;;;;;;;31.83;13.03;;;3.70;99.90;;;;;;5065736;28;20662;-45
2022/01/26 07:27:29;;;;;;;40.60;15.03;;;3.70;99.90;;;;;;5063790;28;20201;-41
2022/01/26 07:29:56;;;;;;;34.73;13.40;;;3.70;99.90;;;;;;5072325;28;20198;-41
2022/01/26 07:32:24;;;;;;;34.43;14.80;;;3.70;99.90;;;;;;5071983;28;20222;-42
2022/01/26 07:34:51;;;;;;;34.07;13.97;;;3.70;99.90;;;;;;5070791;28;20194;-47
2022/01/26 07:37:20;;;;;;;31.77;14.63;;;3.70;99.90;;;;;;5058637;28;20702;-42
2022/01/26 07:40:00;;;;;;;30.13;14.17;;;3.70;99.90;;;;;;5067904;28;20252;-42
2022/01/26 07:42:27;;;;;;;33.60;14.57;;;3.70;99.90;;;;;;5060520;28;20214;-41
2022/01/26 07:44:54;;;;;;;37.83;15.77;;;3.70;99.90;;;;;;5065683;28;20219;-42
2022/01/26 07:47:23;;;;;;;38.30;14.87;;;3.70;99.90;;;;;;5071082;28;20656;-43
2022/01/26 07:49:50;;;;;;;31.17;13.13;;;3.70;99.90;;;;;;5072429;28;20198;-44
2022/01/26 07:52:16;;;;;;;32.60;14.80;;;3.70;99.90;;;;;;5063990;28;20659;-44
2022/01/26 07:54:45;;;;;;;34.13;15.13;;;3.70;99.90;;;;;;5069568;28;20205;-44
2022/01/26 07:57:13;;;;;;;26.53;13.37;;;3.70;99.90;;;;;;5071822;28;20204;-44
2022/01/26 07:59:39;;;;;;;33.53;15.70;;;3.70;99.90;;;;;;5062915;28;22401;-44
2022/01/26 08:02:06;;;;;;;31.53;15.33;;;3.60;99.90;;;;;;5077191;28;20778;-41
2022/01/26 08:04:32;;;;;;;37.93;15.37;;;3.70;99.90;;;;;;5062146;28;20945;-43
2022/01/26 08:06:59;;;;;;;34.00;16.53;;;3.70;99.90;;;;;;5058756;28;20221;-41
2022/01/26 08:09:26;;;;;;;38.27;16.33;;;3.70;99.90;;;;;;5070677;28;20190;-44
2022/01/26 08:11:53;;;;;;;32.00;13.20;;;3.70;99.90;;;;;;5068436;28;20210;-42
2022/01/26 08:14:21;;;;;;;47.37;17.10;;;3.70;99.90;;;;;;5070559;28;20546;-41
2022/01/26 08:16:47;;;;;;;36.63;15.33;;;3.70;99.90;;;;;;5075720;28;20834;-41
2022/01/26 08:19:14;;;;;;;38.13;14.90;;;3.70;99.90;;;;;;5075198;28;20205;-43
2022/01/26 08:21:42;;;;;;;35.53;14.93;;;3.60;99.90;;;;;;5064515;28;21043;-45
2022/01/26 08:24:13;;;;;;;44.27;19.07;;;3.60;99.90;;;;;;5066391;28;20206;-42
2022/01/26 08:26:43;;;;;;;42.33;17.03;;;3.60;99.90;;;;;;5065383;28;22709;-44
2022/01/26 08:29:16;;;;;;;36.87;14.87;;;3.60;99.90;;;;;;5070074;28;20232;-42
2022/01/26 08:31:44;;;;;;;42.00;17.53;;;3.60;99.90;;;;;;5068748;28;20316;-45
2022/01/26 08:34:11;;;;;;;39.37;16.00;;;3.60;99.90;;;;;;5069895;28;20206;-44
2022/01/26 08:36:38;;;;;;;35.47;17.33;;;3.60;99.90;;;;;;5060822;28;20214;-42
2022/01/26 08:39:05;;;;;;;37.77;17.73;;;3.60;99.90;;;;;;5061211;28;20206;-45
2022/01/26 08:41:32;;;;;;;38.33;18.07;;;3.60;99.90;;;;;;5071211;28;22217;-42
2022/01/26 08:43:59;;;;;;;41.63;17.10;;;3.60;99.90;;;;;;5070127;28;20202;-46
2022/01/26 08:46:25;;;;;;;36.33;15.10;;;3.70;99.90;;;;;;5067631;28;20215;-45
2022/01/26 08:48:54;;;;;;;42.40;18.20;;;3.60;99.90;;;;;;5078836;28;20191;-44
2022/01/26 08:51:20;;;;;;;33.10;15.80;;;3.60;99.90;;;;;;5061842;28;20206;-43
2022/01/26 08:53:48;;;;;;;30.50;14.03;;;3.70;99.90;;;;;;5053027;28;20916;-44
2022/01/26 08:56:15;;;;;;;43.33;17.33;;;3.60;99.90;;;;;;5073229;28;20226;-42
2022/01/26 08:58:41;;;;;;;42.43;17.37;;;3.60;99.90;;;;;;5066722;28;20311;-42
2022/01/26 09:01:09;;;;;;;43.23;18.47;;;3.60;99.90;;;;;;5072320;28;20260;-41
2022/01/26 09:03:39;;;;;;;37.00;16.93;;;3.60;99.90;;;;;;5069478;28;20946;-41
2022/01/26 09:06:07;;;;;;;41.90;18.13;;;3.60;99.90;;;;;;5070075;28;20911;-44
2022/01/26 09:08:34;;;;;;;45.13;18.73;;;3.60;99.90;;;;;;5056884;28;21068;-46
2022/01/26 09:11:02;;;;;;;32.13;15.97;;;3.60;99.90;;;;;;5071704;28;20198;-44
2022/01/26 09:13:31;;;;;;;45.43;18.30;;;3.60;99.90;;;;;;5065893;28;20550;-40
2022/01/26 09:15:59;;;;;;;37.93;17.30;;;3.60;99.90;;;;;;5069392;28;20782;-43
2022/01/26 09:18:33;;;;;;;41.60;18.60;;;3.60;99.90;;;;;;5068616;28;21157;-42
2022/01/26 09:21:00;;;;;;;50.40;19.03;;;3.70;99.90;;;;;;5069331;28;20276;-43
2022/01/26 09:23:28;;;;;;;47.27;18.60;;;3.60;99.90;;;;;;5067254;28;20218;-44
2022/01/26 09:25:54;;;;;;;43.80;19.23;;;3.60;99.90;;;;;;5058504;28;20225;-44
2022/01/26 09:28:22;;;;;;;36.23;16.20;;;3.60;99.90;;;;;;5072781;28;20202;-43
2022/01/26 09:30:49;;;;;;;36.93;17.70;;;3.60;99.90;;;;;;5060429;28;20304;-48
2022/01/26 09:33:16;;;;;;;43.97;18.33;;;3.60;99.90;;;;;;5073112;28;20191;-44
2022/01/26 09:35:44;;;;;;;38.83;18.07;;;3.60;99.90;;;;;;5068185;28;20957;-47
2022/01/26 09:38:11;;;;;;;37.83;16.67;;;3.60;99.90;;;;;;5074536;28;20251;-45
2022/01/26 09:40:39;;;;;;;42.70;19.47;;;3.70;99.90;;;;;;5062244;28;21856;-43
2022/01/26 09:43:07;;;;;;;41.33;17.97;;;3.60;99.90;;;;;;5071277;28;20297;-46
2022/01/26 09:45:35;;;;;;;39.03;18.37;;;3.60;99.90;;;;;;5063640;28;20290;-43
2022/01/26 09:48:01;;;;;;;45.57;18.57;;;3.60;99.90;;;;;;5072589;28;20204;-45
2022/01/26 09:50:29;;;;;;;49.33;20.33;;;3.60;99.90;;;;;;5069487;28;20201;-41
2022/01/26 09:52:56;;;;;;;43.87;18.60;;;3.70;99.90;;;;;;5074542;28;20203;-43
2022/01/26 09:55:23;;;;;;;34.17;17.60;;;3.70;99.90;;;;;;5066246;28;20222;-42
2022/01/26 09:57:57;;;;;;;52.90;22.30;;;3.70;99.90;;;;;;5062607;28;20199;-42
2022/01/26 10:00:24;;;;;;;54.07;21.07;;;3.60;99.90;;;;;;5070904;28;20213;-42
2022/01/26 10:02:56;;;;;;;46.67;19.40;;;3.70;99.90;;;;;;5073725;28;20810;-47
2022/01/26 10:05:24;;;;;;;45.20;19.57;;;3.70;99.90;;;;;;5072600;28;20705;-42
2022/01/26 10:08:01;;;;;;;48.30;20.43;;;3.70;99.90;;;;;;5065793;28;20186;-45
2022/01/26 10:15:26;;;;;;;46.10;19.47;;;3.60;99.90;;;;;;5066513;28;20190;-42
2022/01/26 10:16:46;;;;;;;40.50;17.53;;;3.70;99.90;;;;;;5074373;28;20299;-42
2022/01/26 10:19:11;;;;;;;47.20;19.43;;;3.60;99.90;;;;;;5065951;28;20198;-43
2022/01/26 10:22:00;;;;;;;50.07;20.77;;;3.70;99.90;;;;;;5073754;28;20335;-41
2022/01/26 10:24:28;;;;;;;44.77;19.37;;;3.70;99.90;;;;;;5065921;28;20293;-44
2022/01/26 10:26:59;;;;;;;41.07;17.90;;;3.70;99.90;;;;;;5071033;28;20214;-43
2022/01/26 10:29:29;;;;;;;47.17;18.73;;;3.70;99.90;;;;;;5057795;28;20204;-44
2022/01/26 10:31:56;;;;;;;44.73;20.23;;;3.70;99.90;;;;;;5070650;28;20206;-43
2022/01/26 10:34:24;;;;;;;39.80;15.40;;;3.70;99.90;;;;;;5068258;28;20691;-42
2022/01/26 10:36:56;;;;;;;47.20;19.20;;;3.60;99.90;;;;;;5072253;28;20429;-41
2022/01/26 10:39:27;;;;;;;39.83;17.13;;;3.70;99.90;;;;;;5072294;28;20209;-41
2022/01/26 10:41:58;;;;;;;41.67;17.47;;;3.60;99.90;;;;;;5065696;28;20226;-42
2022/01/26 10:44:33;;;;;;;42.17;19.03;;;3.60;99.90;;;;;;5054399;28;20211;-42
2022/01/26 10:47:03;;;;;;;48.80;20.97;;;3.60;99.90;;;;;;5073290;28;20264;-42
2022/01/26 10:49:54;;;;;;;46.10;18.80;;;3.50;99.90;;;;;;5064181;28;20198;-45
2022/01/26 10:52:31;;;;;;;44.50;18.77;;;3.60;99.90;;;;;;5071229;28;20217;-44
2022/01/26 10:54:59;;;;;;;40.53;18.97;;;3.60;99.90;;;;;;5062134;28;20969;-42
2022/01/26 10:57:26;;;;;;;54.30;21.70;;;3.50;99.90;;;;;;5067174;28;20195;-42
2022/01/26 10:59:54;;;;;;;39.53;18.23;;;3.50;99.90;;;;;;5056293;28;20213;-43
2022/01/26 11:02:25;;;;;;;40.87;18.97;;;3.50;99.90;;;;;;5076134;28;20209;-44
2022/01/26 11:04:52;;;;;;;49.30;19.93;;;3.50;99.90;;;;;;5065516;28;20290;-42
2022/01/26 11:07:19;;;;;;;43.20;16.67;;;3.40;99.90;;;;;;5069998;28;20198;-43
2022/01/26 11:09:48;;;;;;;38.80;15.27;;;3.40;99.90;;;;;;5060251;28;20217;-41
2022/01/26 11:12:27;;;;;;;34.93;15.50;;;3.40;99.90;;;;;;5072197;28;20198;-45
2022/01/26 11:15:05;;;;;;;38.43;17.80;;;3.30;99.90;;;;;;5062013;28;20217;-46
2022/01/26 11:17:36;;;;;;;43.70;16.60;;;3.30;99.90;;;;;;5068928;28;20256;-41
2022/01/26 11:20:18;;;;;;;41.37;17.13;;;3.30;99.90;;;;;;5068726;28;20298;-43
2022/01/26 11:22:49;;;;;;;51.13;17.93;;;3.30;99.90;;;;;;5071447;28;20216;-41
2022/01/26 11:25:16;;;;;;;35.50;16.20;;;3.30;99.90;;;;;;5074736;28;20549;-43
2022/01/26 11:27:43;;;;;;;45.67;17.60;;;3.30;99.90;;;;;;5078716;28;20293;-42
2022/01/26 11:30:21;;;;;;;45.13;16.37;;;3.30;99.90;;;;;;5064856;28;20604;-43
2022/01/26 11:32:56;;;;;;;41.20;16.50;;;3.30;99.90;;;;;;5074326;28;20255;-42
2022/01/26 11:35:26;;;;;;;51.63;19.10;;;3.30;99.90;;;;;;5071805;28;20218;-42
2022/01/26 11:38:07;;;;;;;58.20;19.00;;;3.30;99.90;;;;;;5070973;28;20302;-42
2022/01/26 11:46:25;;;;;;;46.87;17.83;;;3.30;99.90;;;;;;5058013;28;20234;-43
2022/01/26 11:49:01;;;;;;;40.03;14.40;;;3.30;99.90;;;;;;5061813;28;20212;-44
2022/01/26 11:51:39;;;;;;;44.20;16.70;;;3.30;99.90;;;;;;5074772;28;20667;-43
2022/01/26 11:54:12;;;;;;;49.47;19.57;;;3.30;99.90;;;;;;5069746;28;20261;-46
2022/01/26 11:56:38;;;;;;;54.00;17.77;;;3.30;99.90;;;;;;5070482;28;20725;-42
2022/01/26 11:59:16;;;;;;;48.73;18.63;;;3.30;99.90;;;;;;5073832;28;20182;-42
2022/01/26 12:01:49;;;;;;;49.53;17.77;;;3.30;99.90;;;;;;5053429;28;20773;-42
2022/01/26 12:04:17;;;;;;;51.43;17.57;;;3.30;99.90;;;;;;5066463;28;20303;-44
2022/01/26 12:06:50;;;;;;;58.73;19.27;;;3.30;99.90;;;;;;5066119;28;20555;-44
2022/01/26 12:09:18;;;;;;;38.50;15.60;;;3.30;99.90;;;;;;5081043;28;20204;-42
2022/01/26 12:11:51;;;;;;;46.47;18.73;;;3.30;99.90;;;;;;5075333;28;20186;-43
2022/01/26 12:14:20;;;;;;;44.90;16.27;;;3.30;99.90;;;;;;5070567;28;20551;-44
2022/01/26 12:16:52;;;;;;;46.53;17.43;;;3.30;99.90;;;;;;5060136;28;23851;-42
2022/01/26 12:19:31;;;;;;;44.90;16.47;;;3.30;99.90;;;;;;5076649;28;20257;-43
2022/01/26 12:35:57;;;;;;;46.73;18.70;;;3.30;99.90;;;;;;5070476;28;20272;-42
2022/01/26 12:38:32;;;;;;;43.47;16.33;;;3.30;99.90;;;;;;5065974;28;20195;-48
2022/01/26 12:43:53;;;;;;;58.20;20.20;;;3.30;99.90;;;;;;5068314;28;20217;-43
2022/01/26 12:46:21;;;;;;;48.70;19.00;;;3.30;99.90;;;;;;5073900;28;20214;-42
2022/01/26 12:48:52;;;;;;;47.13;19.37;;;3.40;99.90;;;;;;5057824;28;20301;-42
2022/01/26 12:51:20;;;;;;;53.97;19.67;;;3.40;99.90;;;;;;5072896;28;20677;-41
2022/01/26 12:53:52;;;;;;;52.67;15.80;;;3.40;99.90;;;;;;5065403;28;20202;-44
2022/01/26 12:56:19;;;;;;;47.27;17.77;;;3.40;99.90;;;;;;5073955;28;20224;-44
2022/01/26 12:58:46;;;;;;;72.73;20.03;;;3.30;99.90;;;;;;5078984;28;20186;-46
2022/01/26 13:01:18;;;;;;;70.83;21.20;;;3.30;99.90;;;;;;5077950;28;20240;-44
2022/01/26 13:03:49;;;;;;;40.70;14.43;;;3.40;99.90;;;;;;5061098;28;20418;-43
2022/01/26 13:06:23;;;;;;;58.67;19.13;;;3.30;99.90;;;;;;5074596;28;20223;-45
2022/01/26 13:08:52;;;;;;;53.07;18.20;;;3.30;99.90;;;;;;5061367;28;20209;-42
2022/01/26 13:11:23;;;;;;;49.93;18.47;;;3.30;99.90;;;;;;5073855;28;20198;-42
2022/01/26 13:13:51;;;;;;;47.23;18.20;;;3.30;99.90;;;;;;5078814;28;20193;-43
2022/01/26 13:16:22;;;;;;;57.37;20.37;;;3.40;99.90;;;;;;5075178;28;20218;-41
2022/01/26 13:24:51;;;;;;;56.63;19.43;;;3.30;99.90;;;;;;5061622;28;20724;-42
2022/01/26 13:27:30;;;;;;;57.80;21.03;;;3.30;99.90;;;;;;5063102;28;20793;-42
2022/01/26 13:30:14;;;;;;;41.83;16.50;;;3.30;99.90;;;;;;5067885;28;20285;-43
2022/01/26 13:33:10;;;;;;;46.63;17.87;;;3.30;99.90;;;;;;5063973;28;20621;-42
2022/01/26 13:35:54;;;;;;;47.57;17.00;;;3.30;99.90;;;;;;5056893;28;20357;-42
2022/01/26 13:38:33;;;;;;;57.20;20.03;;;3.30;99.90;;;;;;5068544;28;20197;-43
2022/01/26 13:41:08;;;;;;;49.27;19.20;;;3.40;99.90;;;;;;5072510;28;20198;-43
2022/01/26 13:46:47;;;;;;;51.77;18.83;;;3.40;99.90;;;;;;5070533;28;20946;-44
2022/01/26 13:49:23;;;;;;;55.80;19.87;;;3.40;99.90;;;;;;5071441;28;20741;-43
2022/01/26 13:52:15;;;;;;;55.37;19.77;;;3.40;99.90;;;;;;5054520;28;20594;-43
2022/01/26 13:55:03;;;;;;;53.27;19.63;;;3.40;99.90;;;;;;5063895;28;20256;-42
2022/01/26 13:57:50;;;;;;;53.63;19.10;;;3.40;99.90;;;;;;5066422;28;20194;-42
2022/01/26 14:00:20;;;;;;;54.03;19.23;;;3.40;99.90;;;;;;5060651;28;20194;-47
2022/01/26 14:02:49;;;;;;;59.57;21.33;;;3.40;99.90;;;;;;5066960;28;20285;-44
2022/01/26 14:05:16;;;;;;;59.53;21.47;;;3.40;99.90;;;;;;5063845;28;20229;-41
2022/01/26 14:07:44;;;;;;;62.23;21.27;;;3.40;99.90;;;;;;5062321;28;20229;-44
2022/01/26 14:10:11;;;;;;;48.43;20.00;;;3.50;99.90;;;;;;5071592;28;20206;-43
2022/01/26 14:12:41;;;;;;;56.33;21.13;;;3.50;99.90;;;;;;5071128;28;20551;-44
2022/01/26 14:15:09;;;;;;;59.97;23.60;;;3.50;99.90;;;;;;5077286;28;20217;-46
2022/01/26 14:17:39;;;;;;;44.73;18.30;;;3.50;99.90;;;;;;5063320;28;20516;-44
2022/01/26 14:20:15;;;;;;;57.47;22.57;;;3.50;99.90;;;;;;5076524;28;20199;-43
2022/01/26 14:23:02;;;;;;;54.50;21.13;;;3.50;99.90;;;;;;5055278;28;20213;-44